sensor_id;sensor_type;location;lat;lon;timestamp;pressure;altitude;pressure_sealevel;temperature;humidity
64739;BME280;51175;51.186;0.276;2023-04-03T00:00:13;102669.94;;;11.88;55.10
64739;BME280;51175;51.186;0.276;2023-04-03T00:00:43;102671.00;;;11.87;55.05
64739;BME280;51175;51.186;0.276;2023-04-03T00:01:14;102663.88;;;11.87;54.80
64739;BME280;51175;51.186;0.276;2023-04-03T00:01:45;102665.69;;;11.87;54.98
64739;BME280;51175;51.186;0.276;2023-04-03T00:02:15;102662.00;;;11.88;55.07
64739;BME280;51175;51.186;0.276;2023-04-03T00:02:45;102666.50;;;11.87;54.99
64739;BME280;51175;51.186;0.276;2023-04-03T00:03:17;102661.22;;;11.87;55.19
64739;BME280;51175;51.186;0.276;2023-04-03T00:03:47;102657.75;;;11.87;55.02
64739;BME280;51175;51.186;0.276;2023-04-03T00:04:18;102663.03;;;11.87;55.21
64739;BME280;51175;51.186;0.276;2023-04-03T00:04:48;102664.88;;;11.86;55.07
64739;BME280;51175;51.186;0.276;2023-04-03T00:05:18;102662.22;;;11.86;55.11
64739;BME280;51175;51.186;0.276;2023-04-03T00:05:49;102671.81;;;11.87;55.20
64739;BME280;51175;51.186;0.276;2023-04-03T00:06:20;102670.16;;;11.86;55.08
64739;BME280;51175;51.186;0.276;2023-04-03T00:06:50;102664.88;;;11.86;55.00
64739;BME280;51175;51.186;0.276;2023-04-03T00:07:21;102659.78;;;11.85;55.24
64739;BME280;51175;51.186;0.276;2023-04-03T00:07:52;102668.56;;;11.85;55.23
64739;BME280;51175;51.186;0.276;2023-04-03T00:08:22;102664.88;;;11.86;55.09
64739;BME280;51175;51.186;0.276;2023-04-03T00:08:52;102674.66;;;11.86;54.81
64739;BME280;51175;51.186;0.276;2023-04-03T00:09:23;102663.25;;;11.85;55.08
64739;BME280;51175;51.186;0.276;2023-04-03T00:09:53;102665.91;;;11.85;55.28
64739;BME280;51175;51.186;0.276;2023-04-03T00:10:23;102665.91;;;11.85;55.13
64739;BME280;51175;51.186;0.276;2023-04-03T00:10:54;102666.94;;;11.84;54.97
64739;BME280;51175;51.186;0.276;2023-04-03T00:11:24;102664.28;;;11.84;55.20
64739;BME280;51175;51.186;0.276;2023-04-03T00:11:55;102666.94;;;11.84;55.12
64739;BME280;51175;51.186;0.276;2023-04-03T00:12:25;102661.66;;;11.84;55.02
64739;BME280;51175;51.186;0.276;2023-04-03T00:12:55;102667.94;;;11.83;55.28
64739;BME280;51175;51.186;0.276;2023-04-03T00:13:26;102666.13;;;11.84;55.12
64739;BME280;51175;51.186;0.276;2023-04-03T00:13:56;102666.13;;;11.84;55.08
64739;BME280;51175;51.186;0.276;2023-04-03T00:14:27;102664.50;;;11.83;55.17
64739;BME280;51175;51.186;0.276;2023-04-03T00:14:59;102666.13;;;11.84;55.01
64739;BME280;51175;51.186;0.276;2023-04-03T00:15:30;102670.59;;;11.83;55.18
64739;BME280;51175;51.186;0.276;2023-04-03T00:16:01;102665.50;;;11.82;55.34
64739;BME280;51175;51.186;0.276;2023-04-03T00:16:33;102666.34;;;11.82;55.29
64739;BME280;51175;51.186;0.276;2023-04-03T00:17:03;102661.03;;;11.82;55.08
64739;BME280;51175;51.186;0.276;2023-04-03T00:17:34;102668.75;;;11.84;55.24
64739;BME280;51175;51.186;0.276;2023-04-03T00:18:04;102667.38;;;11.81;55.30
64739;BME280;51175;51.186;0.276;2023-04-03T00:18:35;102668.97;;;11.82;55.27
64739;BME280;51175;51.186;0.276;2023-04-03T00:19:06;102668.38;;;11.80;55.31
64739;BME280;51175;51.186;0.276;2023-04-03T00:19:37;102664.72;;;11.81;55.33
64739;BME280;51175;51.186;0.276;2023-04-03T00:20:07;102662.06;;;11.81;55.18
64739;BME280;51175;51.186;0.276;2023-04-03T00:20:38;102666.34;;;11.82;55.33
64739;BME280;51175;51.186;0.276;2023-04-03T00:21:10;102661.25;;;11.80;55.03
64739;BME280;51175;51.186;0.276;2023-04-03T00:21:42;102659.66;;;11.79;55.24
64739;BME280;51175;51.186;0.276;2023-04-03T00:22:12;102662.28;;;11.79;55.24
64739;BME280;51175;51.186;0.276;2023-04-03T00:22:42;102663.09;;;11.80;55.11
64739;BME280;51175;51.186;0.276;2023-04-03T00:23:13;102661.47;;;11.79;55.09
64739;BME280;51175;51.186;0.276;2023-04-03T00:23:43;102664.13;;;11.79;55.04
64739;BME280;51175;51.186;0.276;2023-04-03T00:24:13;102658.00;;;11.78;55.22
64739;BME280;51175;51.186;0.276;2023-04-03T00:24:44;102649.25;;;11.78;55.28
64739;BME280;51175;51.186;0.276;2023-04-03T00:25:15;102656.38;;;11.77;55.24
64739;BME280;51175;51.186;0.276;2023-04-03T00:25:45;102653.75;;;11.77;55.19
64739;BME280;51175;51.186;0.276;2023-04-03T00:26:15;102657.41;;;11.76;55.11
64739;BME280;51175;51.186;0.276;2023-04-03T00:26:46;102656.59;;;11.76;55.19
64739;BME280;51175;51.186;0.276;2023-04-03T00:27:16;102655.56;;;11.77;55.21
64739;BME280;51175;51.186;0.276;2023-04-03T00:27:47;102657.41;;;11.76;55.14
64739;BME280;51175;51.186;0.276;2023-04-03T00:28:17;102653.13;;;11.75;55.33
64739;BME280;51175;51.186;0.276;2023-04-03T00:28:47;102655.00;;;11.75;55.05
64739;BME280;51175;51.186;0.276;2023-04-03T00:29:18;102651.31;;;11.76;55.38
64739;BME280;51175;51.186;0.276;2023-04-03T00:29:48;102655.78;;;11.75;55.29
64739;BME280;51175;51.186;0.276;2023-04-03T00:30:20;102651.53;;;11.74;55.34
64739;BME280;51175;51.186;0.276;2023-04-03T00:30:52;102657.63;;;11.75;55.21
64739;BME280;51175;51.186;0.276;2023-04-03T00:31:22;102656.81;;;11.74;55.28
64739;BME280;51175;51.186;0.276;2023-04-03T00:31:53;102655.78;;;11.75;55.42
64739;BME280;51175;51.186;0.276;2023-04-03T00:32:23;102658.66;;;11.74;55.36
64739;BME280;51175;51.186;0.276;2023-04-03T00:32:54;102654.38;;;11.73;55.12
64739;BME280;51175;51.186;0.276;2023-04-03T00:33:24;102656.00;;;11.74;55.42
64739;BME280;51175;51.186;0.276;2023-04-03T00:33:55;102657.84;;;11.73;55.24
64739;BME280;51175;51.186;0.276;2023-04-03T00:34:25;102653.56;;;11.72;55.26
64739;BME280;51175;51.186;0.276;2023-04-03T00:34:55;102653.78;;;11.71;55.38
64739;BME280;51175;51.186;0.276;2023-04-03T00:35:26;102660.72;;;11.72;55.17
64739;BME280;51175;51.186;0.276;2023-04-03T00:35:57;102657.25;;;11.71;55.21
64739;BME280;51175;51.186;0.276;2023-04-03T00:36:27;102652.78;;;11.72;55.35
64739;BME280;51175;51.186;0.276;2023-04-03T00:36:57;102657.25;;;11.71;55.38
64739;BME280;51175;51.186;0.276;2023-04-03T00:37:28;102661.72;;;11.71;55.39
64739;BME280;51175;51.186;0.276;2023-04-03T00:38:01;102654.81;;;11.70;55.33
64739;BME280;51175;51.186;0.276;2023-04-03T00:38:31;102652.16;;;11.70;55.42
64739;BME280;51175;51.186;0.276;2023-04-03T00:39:02;102652.97;;;11.70;55.27
64739;BME280;51175;51.186;0.276;2023-04-03T00:39:33;102658.28;;;11.70;55.36
64739;BME280;51175;51.186;0.276;2023-04-03T00:40:03;102659.06;;;11.71;55.36
64739;BME280;51175;51.186;0.276;2023-04-03T00:40:37;102660.09;;;11.70;55.19
64739;BME280;51175;51.186;0.276;2023-04-03T00:41:08;102654.81;;;11.70;55.15
64739;BME280;51175;51.186;0.276;2023-04-03T00:41:38;102654.81;;;11.70;55.31
64739;BME280;51175;51.186;0.276;2023-04-03T00:42:09;102660.09;;;11.70;55.28
64739;BME280;51175;51.186;0.276;2023-04-03T00:42:41;102658.50;;;11.69;55.16
64739;BME280;51175;51.186;0.276;2023-04-03T00:43:21;102660.31;;;11.68;55.44
64739;BME280;51175;51.186;0.276;2023-04-03T00:43:51;102656.06;;;11.67;55.27
64739;BME280;51175;51.186;0.276;2023-04-03T00:45:45;102662.56;;;11.64;55.36
64739;BME280;51175;51.186;0.276;2023-04-03T00:46:16;102663.59;;;11.63;55.47
64739;BME280;51175;51.186;0.276;2023-04-03T00:46:46;102667.03;;;11.64;55.44
64739;BME280;51175;51.186;0.276;2023-04-03T00:47:17;102661.97;;;11.62;55.38
64739;BME280;51175;51.186;0.276;2023-04-03T00:47:48;102663.00;;;11.61;55.55
64739;BME280;51175;51.186;0.276;2023-04-03T00:48:21;102656.88;;;11.61;55.61
64739;BME280;51175;51.186;0.276;2023-04-03T00:48:53;102658.75;;;11.60;55.43
64739;BME280;51175;51.186;0.276;2023-04-03T00:49:23;102661.38;;;11.60;55.41
64739;BME280;51175;51.186;0.276;2023-04-03T00:49:53;102659.75;;;11.59;55.47
64739;BME280;51175;51.186;0.276;2023-04-03T00:50:24;102661.59;;;11.59;55.67
64739;BME280;51175;51.186;0.276;2023-04-03T00:50:55;102659.75;;;11.59;55.89
64739;BME280;51175;51.186;0.276;2023-04-03T00:51:26;102658.13;;;11.58;55.57
64739;BME280;51175;51.186;0.276;2023-04-03T00:51:58;102663.41;;;11.58;55.46
64739;BME280;51175;51.186;0.276;2023-04-03T00:52:30;102658.94;;;11.59;55.46
64739;BME280;51175;51.186;0.276;2023-04-03T00:53:05;102653.66;;;11.59;55.41
64739;BME280;51175;51.186;0.276;2023-04-03T00:53:50;102652.84;;;11.58;55.27
64739;BME280;51175;51.186;0.276;2023-04-03T00:54:23;102649.38;;;11.58;55.43
64739;BME280;51175;51.186;0.276;2023-04-03T00:54:57;102653.03;;;11.57;55.39
64739;BME280;51175;51.186;0.276;2023-04-03T00:55:28;102655.69;;;11.57;55.38
64739;BME280;51175;51.186;0.276;2023-04-03T00:56:00;102656.50;;;11.57;55.44
64739;BME280;51175;51.186;0.276;2023-04-03T00:56:31;102656.72;;;11.55;55.45
64739;BME280;51175;51.186;0.276;2023-04-03T00:57:02;102651.44;;;11.55;55.47
64739;BME280;51175;51.186;0.276;2023-04-03T00:57:33;102654.28;;;11.54;55.33
64739;BME280;51175;51.186;0.276;2023-04-03T00:58:04;102655.09;;;11.54;55.16
64739;BME280;51175;51.186;0.276;2023-04-03T00:58:51;102655.31;;;11.53;55.48
64739;BME280;51175;51.186;0.276;2023-04-03T00:59:27;102655.31;;;11.53;55.33
64739;BME280;51175;51.186;0.276;2023-04-03T01:00:09;102647.56;;;11.51;55.46
64739;BME280;51175;51.186;0.276;2023-04-03T01:00:42;102652.06;;;11.51;55.50
64739;BME280;51175;51.186;0.276;2023-04-03T01:01:18;102652.06;;;11.51;55.42
64739;BME280;51175;51.186;0.276;2023-04-03T01:01:55;102654.94;;;11.49;55.46
64739;BME280;51175;51.186;0.276;2023-04-03T01:02:26;102655.72;;;11.50;55.35
64739;BME280;51175;51.186;0.276;2023-04-03T01:02:56;102659.41;;;11.49;55.52
64739;BME280;51175;51.186;0.276;2023-04-03T01:03:26;102660.44;;;11.48;55.51
64739;BME280;51175;51.186;0.276;2023-04-03T01:04:01;102647.22;;;11.48;55.28
64739;BME280;51175;51.186;0.276;2023-04-03T01:04:36;102660.44;;;11.48;55.45
64739;BME280;51175;51.186;0.276;2023-04-03T01:05:08;102656.16;;;11.47;55.52
64739;BME280;51175;51.186;0.276;2023-04-03T01:05:39;102664.09;;;11.47;55.41
64739;BME280;51175;51.186;0.276;2023-04-03T01:06:18;102666.72;;;11.47;55.51
64739;BME280;51175;51.186;0.276;2023-04-03T01:06:50;102657.19;;;11.46;55.61
64739;BME280;51175;51.186;0.276;2023-04-03T01:07:24;102663.28;;;11.46;55.58
64739;BME280;51175;51.186;0.276;2023-04-03T01:07:56;102659.00;;;11.45;55.62
64739;BME280;51175;51.186;0.276;2023-04-03T01:08:28;102666.16;;;11.45;55.64
64739;BME280;51175;51.186;0.276;2023-04-03T01:08:59;102663.50;;;11.45;55.55
64739;BME280;51175;51.186;0.276;2023-04-03T01:09:29;102657.41;;;11.44;55.64
64739;BME280;51175;51.186;0.276;2023-04-03T01:10:04;102661.66;;;11.45;55.60
64739;BME280;51175;51.186;0.276;2023-04-03T01:10:35;102658.22;;;11.45;55.70
64739;BME280;51175;51.186;0.276;2023-04-03T01:11:05;102654.75;;;11.44;55.75
64739;BME280;51175;51.186;0.276;2023-04-03T01:11:36;102658.22;;;11.45;55.74
64739;BME280;51175;51.186;0.276;2023-04-03T01:12:48;102653.94;;;11.43;55.53
64739;BME280;51175;51.186;0.276;2023-04-03T01:13:25;102654.75;;;11.44;55.62
64739;BME280;51175;51.186;0.276;2023-04-03T01:13:56;102655.78;;;11.43;55.66
64739;BME280;51175;51.186;0.276;2023-04-03T01:14:26;102661.06;;;11.43;55.77
64739;BME280;51175;51.186;0.276;2023-04-03T01:14:59;102659.22;;;11.43;55.58
64739;BME280;51175;51.186;0.276;2023-04-03T01:15:30;102659.44;;;11.42;55.56
64739;BME280;51175;51.186;0.276;2023-04-03T01:16:05;102650.50;;;11.43;55.65
64739;BME280;51175;51.186;0.276;2023-04-03T01:16:36;102653.13;;;11.43;55.55
64739;BME280;51175;51.186;0.276;2023-04-03T01:17:29;102659.22;;;11.43;55.64
64739;BME280;51175;51.186;0.276;2023-04-03T01:18:00;102657.59;;;11.42;55.67
64739;BME280;51175;51.186;0.276;2023-04-03T01:18:32;102658.63;;;11.41;55.78
64739;BME280;51175;51.186;0.276;2023-04-03T01:19:10;102657.00;;;11.40;55.74
64739;BME280;51175;51.186;0.276;2023-04-03T01:20:02;102659.66;;;11.40;55.82
64739;BME280;51175;51.186;0.276;2023-04-03T01:22:05;102662.72;;;11.37;55.77
64739;BME280;51175;51.186;0.276;2023-04-03T01:24:05;102659.47;;;11.35;55.71
64739;BME280;51175;51.186;0.276;2023-04-03T01:24:40;102661.53;;;11.33;55.85
64739;BME280;51175;51.186;0.276;2023-04-03T01:25:11;102659.09;;;11.32;56.00
64739;BME280;51175;51.186;0.276;2023-04-03T01:25:53;102662.53;;;11.32;55.91
64739;BME280;51175;51.186;0.276;2023-04-03T01:26:24;102658.25;;;11.31;55.86
64739;BME280;51175;51.186;0.276;2023-04-03T01:26:55;102658.06;;;11.33;56.04
64739;BME280;51175;51.186;0.276;2023-04-03T01:27:26;102657.22;;;11.32;56.03
64739;BME280;51175;51.186;0.276;2023-04-03T01:27:57;102656.44;;;11.32;55.95
64739;BME280;51175;51.186;0.276;2023-04-03T01:28:31;102659.88;;;11.32;55.96
64739;BME280;51175;51.186;0.276;2023-04-03T01:29:02;102651.94;;;11.32;55.96
64739;BME280;51175;51.186;0.276;2023-04-03T01:29:33;102651.16;;;11.32;56.10
64739;BME280;51175;51.186;0.276;2023-04-03T01:30:05;102652.97;;;11.31;55.98
64739;BME280;51175;51.186;0.276;2023-04-03T01:30:48;102654.59;;;11.32;55.78
64739;BME280;51175;51.186;0.276;2023-04-03T01:31:30;102651.94;;;11.32;56.22
64739;BME280;51175;51.186;0.276;2023-04-03T01:32:03;102652.97;;;11.31;55.88
64739;BME280;51175;51.186;0.276;2023-04-03T01:32:34;102650.31;;;11.31;56.09
64739;BME280;51175;51.186;0.276;2023-04-03T01:33:04;102646.88;;;11.30;55.88
64739;BME280;51175;51.186;0.276;2023-04-03T01:33:35;102645.03;;;11.31;55.91
64739;BME280;51175;51.186;0.276;2023-04-03T01:34:07;102646.06;;;11.30;56.09
64739;BME280;51175;51.186;0.276;2023-04-03T01:34:37;102645.84;;;11.32;55.99
64739;BME280;51175;51.186;0.276;2023-04-03T01:35:09;102644.22;;;11.30;56.00
64739;BME280;51175;51.186;0.276;2023-04-03T01:35:39;102651.16;;;11.32;55.92
64739;BME280;51175;51.186;0.276;2023-04-03T01:36:15;102640.78;;;11.30;55.83
64739;BME280;51175;51.186;0.276;2023-04-03T01:36:45;102647.69;;;11.31;55.89
64739;BME280;51175;51.186;0.276;2023-04-03T01:37:16;102650.53;;;11.29;56.00
64739;BME280;51175;51.186;0.276;2023-04-03T01:37:47;102637.31;;;11.29;55.81
64739;BME280;51175;51.186;0.276;2023-04-03T01:38:18;102650.53;;;11.29;55.77
64739;BME280;51175;51.186;0.276;2023-04-03T01:38:48;102647.91;;;11.29;56.04
64739;BME280;51175;51.186;0.276;2023-04-03T01:39:19;102649.72;;;11.29;56.05
64739;BME280;51175;51.186;0.276;2023-04-03T01:39:50;102646.06;;;11.30;55.86
64739;BME280;51175;51.186;0.276;2023-04-03T01:40:20;102648.94;;;11.28;55.91
64739;BME280;51175;51.186;0.276;2023-04-03T01:40:50;102652.38;;;11.29;56.04
64739;BME280;51175;51.186;0.276;2023-04-03T01:41:22;102647.06;;;11.29;56.09
64739;BME280;51175;51.186;0.276;2023-04-03T01:41:52;102652.38;;;11.29;56.03
64739;BME280;51175;51.186;0.276;2023-04-03T01:42:23;102644.44;;;11.29;55.81
64739;BME280;51175;51.186;0.276;2023-04-03T01:42:53;102647.91;;;11.29;55.84
64739;BME280;51175;51.186;0.276;2023-04-03T01:43:23;102646.88;;;11.30;55.97
64739;BME280;51175;51.186;0.276;2023-04-03T01:43:54;102644.44;;;11.29;55.83
64739;BME280;51175;51.186;0.276;2023-04-03T01:44:25;102641.78;;;11.29;56.00
64739;BME280;51175;51.186;0.276;2023-04-03T01:44:55;102646.06;;;11.30;55.86
64739;BME280;51175;51.186;0.276;2023-04-03T01:45:25;102639.97;;;11.29;55.90
64739;BME280;51175;51.186;0.276;2023-04-03T01:45:56;102640.78;;;11.30;55.99
64739;BME280;51175;51.186;0.276;2023-04-03T01:46:26;102640.78;;;11.30;55.80
64739;BME280;51175;51.186;0.276;2023-04-03T01:46:57;102642.59;;;11.29;56.02
64739;BME280;51175;51.186;0.276;2023-04-03T01:47:27;102639.97;;;11.29;56.03
64739;BME280;51175;51.186;0.276;2023-04-03T01:47:57;102641.56;;;11.30;56.01
64739;BME280;51175;51.186;0.276;2023-04-03T01:48:31;102636.50;;;11.29;55.81
64739;BME280;51175;51.186;0.276;2023-04-03T01:49:01;102634.66;;;11.29;56.00
64739;BME280;51175;51.186;0.276;2023-04-03T01:49:32;102634.66;;;11.29;56.04
64739;BME280;51175;51.186;0.276;2023-04-03T01:50:02;102635.69;;;11.28;55.84
64739;BME280;51175;51.186;0.276;2023-04-03T01:50:33;102639.97;;;11.29;55.97
64739;BME280;51175;51.186;0.276;2023-04-03T01:51:04;102643.63;;;11.28;55.84
64739;BME280;51175;51.186;0.276;2023-04-03T01:51:34;102640.16;;;11.28;55.73
64739;BME280;51175;51.186;0.276;2023-04-03T01:52:05;102633.06;;;11.28;55.88
64739;BME280;51175;51.186;0.276;2023-04-03T01:52:35;102633.84;;;11.29;55.96
64739;BME280;51175;51.186;0.276;2023-04-03T01:53:05;102633.25;;;11.27;55.81
64739;BME280;51175;51.186;0.276;2023-04-03T01:53:36;102637.53;;;11.28;55.80
64739;BME280;51175;51.186;0.276;2023-04-03T01:54:06;102632.22;;;11.28;55.79
64739;BME280;51175;51.186;0.276;2023-04-03T01:54:36;102637.53;;;11.28;55.84
64739;BME280;51175;51.186;0.276;2023-04-03T01:55:07;102634.88;;;11.28;55.84
64739;BME280;51175;51.186;0.276;2023-04-03T01:55:38;102636.69;;;11.27;55.74
64739;BME280;51175;51.186;0.276;2023-04-03T01:56:08;102636.69;;;11.27;55.95
64739;BME280;51175;51.186;0.276;2023-04-03T01:56:39;102635.91;;;11.27;55.92
64739;BME280;51175;51.186;0.276;2023-04-03T01:57:09;102636.69;;;11.27;55.77
64739;BME280;51175;51.186;0.276;2023-04-03T01:57:40;102633.25;;;11.27;55.74
64739;BME280;51175;51.186;0.276;2023-04-03T01:58:11;102634.28;;;11.26;55.75
64739;BME280;51175;51.186;0.276;2023-04-03T01:58:41;102637.53;;;11.28;55.67
64739;BME280;51175;51.186;0.276;2023-04-03T01:59:11;102634.28;;;11.26;55.78
64739;BME280;51175;51.186;0.276;2023-04-03T01:59:42;102630.84;;;11.25;55.78
64739;BME280;51175;51.186;0.276;2023-04-03T02:00:13;102634.47;;;11.24;55.73
64739;BME280;51175;51.186;0.276;2023-04-03T02:00:43;102635.31;;;11.25;55.85
64739;BME280;51175;51.186;0.276;2023-04-03T02:01:13;102632.66;;;11.25;55.75
64739;BME280;51175;51.186;0.276;2023-04-03T02:01:45;102632.03;;;11.23;55.77
64739;BME280;51175;51.186;0.276;2023-04-03T02:02:15;102633.91;;;11.22;55.77
64739;BME280;51175;51.186;0.276;2023-04-03T02:02:46;102626.97;;;11.21;55.97
64739;BME280;51175;51.186;0.276;2023-04-03T02:03:17;102633.09;;;11.22;55.94
64739;BME280;51175;51.186;0.276;2023-04-03T02:03:47;102624.31;;;11.21;55.91
64739;BME280;51175;51.186;0.276;2023-04-03T02:04:18;102629.63;;;11.21;55.84
64739;BME280;51175;51.186;0.276;2023-04-03T02:04:48;102624.31;;;11.21;55.73
64739;BME280;51175;51.186;0.276;2023-04-03T02:05:18;102626.19;;;11.21;55.87
64739;BME280;51175;51.186;0.276;2023-04-03T02:05:49;102632.25;;;11.21;56.03
64739;BME280;51175;51.186;0.276;2023-04-03T02:06:20;102628.00;;;11.20;55.79
64739;BME280;51175;51.186;0.276;2023-04-03T02:06:50;102628.00;;;11.20;55.95
64739;BME280;51175;51.186;0.276;2023-04-03T02:07:20;102633.50;;;11.18;55.83
64739;BME280;51175;51.186;0.276;2023-04-03T02:07:51;102622.91;;;11.18;56.05
64739;BME280;51175;51.186;0.276;2023-04-03T02:08:21;102627.38;;;11.18;56.10
64739;BME280;51175;51.186;0.276;2023-04-03T02:08:52;102628.22;;;11.18;56.01
64739;BME280;51175;51.186;0.276;2023-04-03T02:09:22;102630.84;;;11.18;55.97
64739;BME280;51175;51.186;0.276;2023-04-03T02:09:52;102631.06;;;11.17;56.02
64739;BME280;51175;51.186;0.276;2023-04-03T02:10:23;102632.69;;;11.18;55.97
64739;BME280;51175;51.186;0.276;2023-04-03T02:10:53;102636.16;;;11.18;56.09
64739;BME280;51175;51.186;0.276;2023-04-03T02:11:23;102629.25;;;11.17;55.99
64739;BME280;51175;51.186;0.276;2023-04-03T02:11:54;102628.22;;;11.18;55.96
64739;BME280;51175;51.186;0.276;2023-04-03T02:12:25;102630.25;;;11.16;56.07
64739;BME280;51175;51.186;0.276;2023-04-03T02:12:55;102626.19;;;11.14;56.05
64739;BME280;51175;51.186;0.276;2023-04-03T02:13:26;102629.25;;;11.17;55.84
64739;BME280;51175;51.186;0.276;2023-04-03T02:13:56;102630.25;;;11.16;55.95
64739;BME280;51175;51.186;0.276;2023-04-03T02:14:26;102632.88;;;11.16;55.84
64739;BME280;51175;51.186;0.276;2023-04-03T02:14:57;102632.09;;;11.16;55.93
64739;BME280;51175;51.186;0.276;2023-04-03T02:15:27;102635.75;;;11.15;56.12
64739;BME280;51175;51.186;0.276;2023-04-03T02:15:58;102632.09;;;11.16;55.98
64739;BME280;51175;51.186;0.276;2023-04-03T02:16:29;102621.72;;;11.14;55.80
64739;BME280;51175;51.186;0.276;2023-04-03T02:17:01;102627.03;;;11.14;55.90
64739;BME280;51175;51.186;0.276;2023-04-03T02:17:35;102629.66;;;11.14;56.09
64739;BME280;51175;51.186;0.276;2023-04-03T02:18:06;102624.38;;;11.14;55.89
64739;BME280;51175;51.186;0.276;2023-04-03T02:18:37;102621.72;;;11.14;55.86
64739;BME280;51175;51.186;0.276;2023-04-03T02:19:08;102620.91;;;11.14;56.11
64739;BME280;51175;51.186;0.276;2023-04-03T02:19:38;102620.09;;;11.13;56.07
64739;BME280;51175;51.186;0.276;2023-04-03T02:20:10;102624.38;;;11.14;55.94
64739;BME280;51175;51.186;0.276;2023-04-03T02:20:40;102623.56;;;11.14;56.03
64739;BME280;51175;51.186;0.276;2023-04-03T02:21:11;102630.66;;;11.13;55.84
64739;BME280;51175;51.186;0.276;2023-04-03T02:21:41;102624.38;;;11.14;55.99
64739;BME280;51175;51.186;0.276;2023-04-03T02:22:11;102625.38;;;11.13;55.86
64739;BME280;51175;51.186;0.276;2023-04-03T02:22:42;102630.66;;;11.13;56.02
64739;BME280;51175;51.186;0.276;2023-04-03T02:23:12;102625.38;;;11.13;56.01
64739;BME280;51175;51.186;0.276;2023-04-03T02:23:42;102622.16;;;11.11;55.97
64739;BME280;51175;51.186;0.276;2023-04-03T02:24:13;102626.41;;;11.12;55.84
64739;BME280;51175;51.186;0.276;2023-04-03T02:24:43;102630.09;;;11.11;55.88
64739;BME280;51175;51.186;0.276;2023-04-03T02:25:14;102630.09;;;11.11;55.94
64739;BME280;51175;51.186;0.276;2023-04-03T02:25:45;102626.63;;;11.11;55.81
64739;BME280;51175;51.186;0.276;2023-04-03T02:26:16;102623.16;;;11.10;56.07
64739;BME280;51175;51.186;0.276;2023-04-03T02:26:46;102633.72;;;11.10;55.99
64739;BME280;51175;51.186;0.276;2023-04-03T02:27:17;102629.47;;;11.09;55.89
64739;BME280;51175;51.186;0.276;2023-04-03T02:27:47;102630.28;;;11.10;55.97
64739;BME280;51175;51.186;0.276;2023-04-03T02:28:17;102630.28;;;11.10;55.83
64739;BME280;51175;51.186;0.276;2023-04-03T02:28:48;102633.94;;;11.09;56.13
64739;BME280;51175;51.186;0.276;2023-04-03T02:29:18;102630.50;;;11.08;55.96
64739;BME280;51175;51.186;0.276;2023-04-03T02:29:49;102631.28;;;11.09;56.03
64739;BME280;51175;51.186;0.276;2023-04-03T02:30:20;102631.28;;;11.09;56.06
64739;BME280;51175;51.186;0.276;2023-04-03T02:30:50;102630.50;;;11.08;56.02
64739;BME280;51175;51.186;0.276;2023-04-03T02:31:20;102632.34;;;11.08;56.01
64739;BME280;51175;51.186;0.276;2023-04-03T02:31:51;102631.50;;;11.07;55.85
64739;BME280;51175;51.186;0.276;2023-04-03T02:32:22;102632.53;;;11.06;56.21
64739;BME280;51175;51.186;0.276;2023-04-03T02:32:52;102629.06;;;11.05;56.20
64739;BME280;51175;51.186;0.276;2023-04-03T02:33:23;102627.47;;;11.04;56.06
64739;BME280;51175;51.186;0.276;2023-04-03T02:33:53;102627.47;;;11.04;56.17
64739;BME280;51175;51.186;0.276;2023-04-03T02:34:24;102624.00;;;11.04;56.12
64739;BME280;51175;51.186;0.276;2023-04-03T02:34:54;102626.63;;;11.04;56.07
64739;BME280;51175;51.186;0.276;2023-04-03T02:35:24;102636.44;;;11.03;55.94
64739;BME280;51175;51.186;0.276;2023-04-03T02:35:56;102636.44;;;11.03;55.88
64739;BME280;51175;51.186;0.276;2023-04-03T02:36:26;102632.97;;;11.03;56.10
64739;BME280;51175;51.186;0.276;2023-04-03T02:36:56;102635.59;;;11.03;56.12
64739;BME280;51175;51.186;0.276;2023-04-03T02:37:27;102631.34;;;11.02;56.22
64739;BME280;51175;51.186;0.276;2023-04-03T02:37:57;102629.50;;;11.02;56.04
64739;BME280;51175;51.186;0.276;2023-04-03T02:38:28;102636.63;;;11.02;55.99
64739;BME280;51175;51.186;0.276;2023-04-03T02:38:58;102640.88;;;11.03;56.19
64739;BME280;51175;51.186;0.276;2023-04-03T02:39:28;102638.47;;;11.01;55.95
64739;BME280;51175;51.186;0.276;2023-04-03T02:39:59;102636.63;;;11.02;56.11
64739;BME280;51175;51.186;0.276;2023-04-03T02:40:29;102635.00;;;11.01;56.15
64739;BME280;51175;51.186;0.276;2023-04-03T02:41:05;102633.38;;;11.00;56.11
64739;BME280;51175;51.186;0.276;2023-04-03T02:41:36;102635.00;;;11.01;56.12
64739;BME280;51175;51.186;0.276;2023-04-03T02:42:06;102636.03;;;11.00;55.98
64739;BME280;51175;51.186;0.276;2023-04-03T02:42:37;102630.72;;;11.00;56.11
64739;BME280;51175;51.186;0.276;2023-04-03T02:43:08;102632.56;;;10.99;56.00
64739;BME280;51175;51.186;0.276;2023-04-03T02:43:38;102628.28;;;10.98;56.22
64739;BME280;51175;51.186;0.276;2023-04-03T02:44:10;102637.03;;;10.99;56.18
64739;BME280;51175;51.186;0.276;2023-04-03T02:44:41;102637.03;;;10.99;56.01
64739;BME280;51175;51.186;0.276;2023-04-03T02:45:11;102635.41;;;10.98;56.12
64739;BME280;51175;51.186;0.276;2023-04-03T02:45:42;102634.38;;;10.99;56.13
64739;BME280;51175;51.186;0.276;2023-04-03T02:46:12;102631.16;;;10.97;56.02
64739;BME280;51175;51.186;0.276;2023-04-03T02:46:45;102629.28;;;10.97;56.12
64739;BME280;51175;51.186;0.276;2023-04-03T02:47:15;102621.38;;;10.97;56.04
64739;BME280;51175;51.186;0.276;2023-04-03T02:47:45;102632.16;;;10.96;56.27
64739;BME280;51175;51.186;0.276;2023-04-03T02:48:16;102633.78;;;10.97;56.15
64739;BME280;51175;51.186;0.276;2023-04-03T02:48:46;102634.78;;;10.96;56.67
64739;BME280;51175;51.186;0.276;2023-04-03T02:49:17;102634.78;;;10.96;56.23